Time;durP1;ratioP1;P1;durP2;ratioP2;P2;SDS_P1;SDS_P2;PMS_P1;PMS_P2;Temp;Humidity;BMP_temperature;BMP_pressure;BME280_temperature;BME280_humidity;BME280_pressure;Samples;Min_cycle;Max_cycle;Signal;HPM_P1;HPM_P2
2021/04/20 00:01:21;;;;;;;46.63;32.60;;;6.70;99.90;;;;;;5049373;28;20189;-66
2021/04/20 00:03:48;;;;;;;51.63;31.53;;;6.70;99.90;;;;;;5049974;28;20185;-66
2021/04/20 00:06:14;;;;;;;38.50;31.60;;;6.60;99.90;;;;;;5046925;28;20967;-66
2021/04/20 00:08:40;;;;;;;40.40;32.00;;;6.50;99.90;;;;;;5048377;28;20424;-66
2021/04/20 00:11:06;;;;;;;40.07;30.50;;;6.40;99.90;;;;;;5047535;28;20858;-66
2021/04/20 00:13:32;;;;;;;44.00;30.60;;;6.40;99.90;;;;;;5039005;28;20202;-66
2021/04/20 00:15:58;;;;;;;38.83;30.07;;;6.40;99.90;;;;;;5048494;28;20973;-66
2021/04/20 00:18:24;;;;;;;42.23;31.00;;;6.40;99.90;;;;;;5044858;28;20431;-66
2021/04/20 00:20:50;;;;;;;39.43;28.80;;;6.40;99.90;;;;;;5049235;28;20448;-66
2021/04/20 00:23:15;;;;;;;39.07;30.33;;;6.40;99.90;;;;;;5047342;28;20635;-66
2021/04/20 00:25:42;;;;;;;36.60;28.43;;;6.40;99.90;;;;;;5049795;28;20212;-66
2021/04/20 00:28:07;;;;;;;39.03;29.40;;;6.20;99.90;;;;;;5042659;28;20181;-66
2021/04/20 00:30:33;;;;;;;44.60;32.27;;;6.10;99.90;;;;;;5047696;28;20448;-66
2021/04/20 00:32:59;;;;;;;39.30;30.67;;;6.00;99.90;;;;;;5049094;28;20178;-66
2021/04/20 00:35:25;;;;;;;43.60;32.00;;;6.00;99.90;;;;;;5040127;28;20439;-67
2021/04/20 00:37:50;;;;;;;43.43;32.30;;;6.00;99.90;;;;;;5048998;28;20178;-66
2021/04/20 00:40:17;;;;;;;47.30;33.17;;;6.00;99.90;;;;;;5048722;28;20170;-66
2021/04/20 00:42:51;;;;;;;41.53;32.43;;;6.00;99.90;;;;;;5048824;28;20186;-66
2021/04/20 00:45:20;;;;;;;43.73;27.87;;;6.00;99.90;;;;;;5051212;28;20452;-66
2021/04/20 00:47:46;;;;;;;39.60;27.97;;;5.90;99.90;;;;;;5043879;28;20436;-66
2021/04/20 00:50:13;;;;;;;44.80;32.00;;;5.80;99.90;;;;;;5047796;28;20428;-66
2021/04/20 00:52:38;;;;;;;40.10;30.53;;;5.70;99.90;;;;;;5047094;28;20204;-66
2021/04/20 00:55:05;;;;;;;38.97;29.07;;;5.70;99.90;;;;;;5046826;28;20507;-66
2021/04/20 00:57:31;;;;;;;40.50;30.37;;;5.50;99.90;;;;;;5044684;28;20169;-66
2021/04/20 00:59:56;;;;;;;42.40;28.90;;;5.50;99.90;;;;;;5052432;28;20978;-66
2021/04/20 01:02:22;;;;;;;40.17;29.43;;;5.50;99.90;;;;;;5052343;28;20615;-67
2021/04/20 01:04:47;;;;;;;40.87;31.17;;;5.50;99.90;;;;;;5048840;28;20215;-66
2021/04/20 01:07:14;;;;;;;36.60;29.93;;;5.50;99.90;;;;;;5052966;28;20170;-66
2021/04/20 01:09:40;;;;;;;37.87;30.60;;;5.60;99.90;;;;;;5046467;28;20185;-66
2021/04/20 01:12:06;;;;;;;38.83;28.03;;;5.60;99.90;;;;;;5046553;28;20455;-66
2021/04/20 01:14:31;;;;;;;39.83;29.13;;;5.60;99.90;;;;;;5042561;28;20447;-66
2021/04/20 01:16:57;;;;;;;34.80;26.87;;;5.50;99.90;;;;;;5051778;28;20181;-66
2021/04/20 01:19:25;;;;;;;52.27;36.23;;;5.50;99.90;;;;;;5049919;28;20440;-66
2021/04/20 01:21:52;;;;;;;40.63;28.50;;;5.40;99.90;;;;;;5048694;28;20338;-66
2021/04/20 01:24:23;;;;;;;39.07;31.40;;;5.40;99.90;;;;;;5044531;28;20558;-67
2021/04/20 01:26:48;;;;;;;45.10;31.70;;;5.30;99.90;;;;;;5049180;28;20459;-66
2021/04/20 01:29:14;;;;;;;39.90;29.80;;;5.30;99.90;;;;;;5051364;28;20464;-66
2021/04/20 01:31:43;;;;;;;42.13;31.00;;;5.40;99.90;;;;;;5052451;28;20749;-66
2021/04/20 01:34:09;;;;;;;46.40;30.43;;;5.30;99.90;;;;;;5043495;28;20193;-66
2021/04/20 01:36:34;;;;;;;44.63;31.30;;;5.30;99.90;;;;;;5047698;28;20443;-66
2021/04/20 01:39:02;;;;;;;35.90;27.73;;;5.30;99.90;;;;;;5042804;28;20432;-66
2021/04/20 01:41:28;;;;;;;45.57;32.20;;;5.40;99.90;;;;;;5048471;28;20201;-66
2021/04/20 01:43:56;;;;;;;39.30;28.73;;;5.40;99.90;;;;;;5045659;28;20440;-66
2021/04/20 01:46:23;;;;;;;37.37;28.27;;;5.30;99.90;;;;;;5051024;28;20443;-66
2021/04/20 01:48:49;;;;;;;39.47;28.80;;;5.40;99.90;;;;;;5050814;28;20474;-66
2021/04/20 01:51:17;;;;;;;36.17;28.53;;;5.40;99.90;;;;;;5050564;28;20478;-66
2021/04/20 01:53:43;;;;;;;37.50;28.17;;;5.30;99.90;;;;;;5051509;28;20933;-66
2021/04/20 01:56:11;;;;;;;36.20;27.40;;;5.30;99.90;;;;;;5050946;28;20849;-66
2021/04/20 01:58:39;;;;;;;39.37;30.60;;;5.30;99.90;;;;;;5051235;28;20432;-66
2021/04/20 02:01:16;;;;;;;36.87;29.00;;;5.20;99.90;;;;;;5051318;28;20451;-66
2021/04/20 02:03:47;;;;;;;36.17;27.53;;;5.20;99.90;;;;;;5037586;28;20458;-66
2021/04/20 02:06:15;;;;;;;36.60;28.73;;;5.20;99.90;;;;;;5051600;28;20454;-66
2021/04/20 02:08:41;;;;;;;45.13;28.23;;;5.20;99.90;;;;;;5043373;28;20929;-66
2021/04/20 02:11:08;;;;;;;43.13;28.93;;;5.10;99.90;;;;;;5050393;28;21151;-66
2021/04/20 02:13:34;;;;;;;40.10;28.57;;;5.10;99.90;;;;;;5051877;28;20427;-66
2021/04/20 02:16:02;;;;;;;41.70;30.30;;;5.10;99.90;;;;;;5050076;28;20439;-66
2021/04/20 02:18:29;;;;;;;38.27;26.57;;;5.20;99.90;;;;;;5050632;28;20470;-66
2021/04/20 02:20:55;;;;;;;42.17;28.20;;;5.20;99.90;;;;;;5035771;28;20453;-67
2021/04/20 02:23:21;;;;;;;52.07;29.07;;;5.20;99.90;;;;;;5050567;28;20440;-67
2021/04/20 02:25:47;;;;;;;52.37;28.77;;;5.30;99.90;;;;;;5047016;28;20467;-66
2021/04/20 02:28:13;;;;;;;81.17;31.37;;;5.30;99.90;;;;;;5048260;28;20468;-66
2021/04/20 02:30:40;;;;;;;62.23;31.77;;;5.20;99.90;;;;;;5036928;28;20459;-66
2021/04/20 02:33:05;;;;;;;46.43;29.47;;;5.30;99.90;;;;;;5051336;28;20955;-66
2021/04/20 02:35:31;;;;;;;39.10;28.97;;;5.40;99.90;;;;;;5048323;28;20436;-66
2021/04/20 02:37:58;;;;;;;48.40;28.77;;;5.50;99.90;;;;;;5037698;28;20471;-67
2021/04/20 02:40:29;;;;;;;57.30;30.57;;;5.40;99.90;;;;;;5049537;28;20535;-67
2021/04/20 02:42:55;;;;;;;89.33;33.40;;;5.40;99.90;;;;;;5046092;28;20440;-67
2021/04/20 02:45:23;;;;;;;250.07;39.23;;;5.30;99.90;;;;;;5035019;28;20474;-66
2021/04/20 02:47:49;;;;;;;143.60;35.13;;;5.40;99.90;;;;;;5046435;28;20181;-66
2021/04/20 02:50:18;;;;;;;137.63;33.50;;;5.30;99.90;;;;;;5040398;28;20464;-66
2021/04/20 02:52:47;;;;;;;141.23;36.07;;;5.20;99.90;;;;;;5045816;28;20428;-66
2021/04/20 02:55:13;;;;;;;149.13;35.20;;;5.10;99.90;;;;;;5049569;28;20447;-66
2021/04/20 02:57:42;;;;;;;147.80;35.93;;;5.00;99.90;;;;;;5042153;28;20439;-66
2021/04/20 03:00:15;;;;;;;88.40;33.27;;;5.00;99.90;;;;;;5050941;28;20435;-66
2021/04/20 03:02:42;;;;;;;120.00;33.53;;;5.10;99.90;;;;;;5032757;28;20436;-66
2021/04/20 03:05:12;;;;;;;93.20;34.47;;;5.10;99.90;;;;;;5050697;28;20467;-66
2021/04/20 03:07:38;;;;;;;129.20;35.47;;;5.10;99.90;;;;;;5042123;28;20527;-66
2021/04/20 03:10:05;;;;;;;50.93;30.60;;;5.10;99.90;;;;;;5049912;28;20527;-66
2021/04/20 03:12:30;;;;;;;52.63;28.23;;;5.10;99.90;;;;;;5050047;28;20697;-66
2021/04/20 03:14:59;;;;;;;49.17;26.60;;;5.10;99.90;;;;;;5044647;28;20774;-66
2021/04/20 03:17:25;;;;;;;49.77;29.07;;;5.10;99.90;;;;;;5050444;28;20181;-66
2021/04/20 03:19:51;;;;;;;33.80;25.47;;;5.10;99.90;;;;;;5048705;28;20435;-66
2021/04/20 03:22:18;;;;;;;36.30;26.00;;;5.10;99.90;;;;;;5047021;28;20205;-66
2021/04/20 03:25:05;;;;;;;35.93;26.27;;;5.10;99.90;;;;;;5049574;28;20292;-66
2021/04/20 03:27:32;;;;;;;31.87;25.83;;;5.20;99.90;;;;;;5047388;28;21002;-66
2021/04/20 03:29:57;;;;;;;30.40;26.40;;;5.20;99.90;;;;;;5038108;28;20451;-66
2021/04/20 03:32:24;;;;;;;37.60;25.77;;;5.20;99.90;;;;;;5046948;28;20495;-67
2021/04/20 03:34:59;;;;;;;42.17;26.20;;;5.10;99.90;;;;;;5050471;28;20184;-66
2021/04/20 03:37:35;;;;;;;31.33;25.30;;;5.00;99.90;;;;;;5035534;28;20740;-66
2021/04/20 03:40:04;;;;;;;31.37;24.17;;;5.00;99.90;;;;;;5047971;28;20802;-66
2021/04/20 03:42:34;;;;;;;27.90;24.27;;;5.00;99.90;;;;;;5049953;28;20448;-67
2021/04/20 03:45:06;;;;;;;31.43;25.60;;;5.10;99.90;;;;;;5032275;28;20828;-67
2021/04/20 03:47:40;;;;;;;33.13;25.37;;;5.10;99.90;;;;;;5050083;28;20424;-66
2021/04/20 03:50:11;;;;;;;34.40;27.53;;;5.00;99.90;;;;;;5044423;28;20432;-67
2021/04/20 03:52:43;;;;;;;33.03;24.20;;;4.90;99.90;;;;;;5050400;28;20524;-66
2021/04/20 03:55:10;;;;;;;31.33;25.10;;;4.90;99.90;;;;;;5048418;28;20436;-66
2021/04/20 03:57:37;;;;;;;28.10;22.00;;;5.00;99.90;;;;;;5048285;28;20974;-66
2021/04/20 04:00:07;;;;;;;26.50;22.90;;;5.00;99.90;;;;;;5039461;28;20569;-66
2021/04/20 04:02:36;;;;;;;26.67;22.90;;;5.00;99.90;;;;;;5046285;28;20432;-66
2021/04/20 04:05:04;;;;;;;26.97;22.03;;;5.00;99.90;;;;;;5042430;28;20451;-66
2021/04/20 04:07:31;;;;;;;30.40;24.97;;;5.00;99.90;;;;;;5048116;28;20431;-67
2021/04/20 04:09:58;;;;;;;29.57;23.27;;;5.00;99.90;;;;;;5049377;28;20439;-66
2021/04/20 04:12:24;;;;;;;28.57;24.17;;;4.90;99.90;;;;;;5042073;28;20913;-66
2021/04/20 04:14:53;;;;;;;29.27;25.33;;;4.90;99.90;;;;;;5050038;28;20431;-66
2021/04/20 04:17:20;;;;;;;29.17;23.20;;;4.90;99.90;;;;;;5048372;28;20442;-66
2021/04/20 04:19:49;;;;;;;26.37;23.57;;;4.90;99.90;;;;;;5037730;28;21609;-66
2021/04/20 04:22:19;;;;;;;28.53;23.37;;;4.90;99.90;;;;;;5046801;28;20455;-66
2021/04/20 04:24:53;;;;;;;27.07;24.00;;;5.00;99.90;;;;;;5052785;28;20558;-66
2021/04/20 04:27:22;;;;;;;28.40;23.03;;;5.00;99.90;;;;;;5052419;28;20471;-66
2021/04/20 04:29:51;;;;;;;27.70;24.30;;;5.10;99.90;;;;;;5041964;28;20456;-66
2021/04/20 04:32:19;;;;;;;28.90;22.93;;;5.10;99.90;;;;;;5037961;28;20452;-66
2021/04/20 04:34:47;;;;;;;27.80;22.30;;;5.10;99.90;;;;;;5053060;28;20444;-66
2021/04/20 04:37:15;;;;;;;29.13;22.33;;;5.00;99.90;;;;;;5051378;28;20441;-66
2021/04/20 04:39:44;;;;;;;28.13;22.40;;;4.90;99.90;;;;;;5052671;28;20445;-66
2021/04/20 04:42:10;;;;;;;27.33;22.77;;;4.80;99.90;;;;;;5053028;28;20459;-66
2021/04/20 04:44:35;;;;;;;27.90;23.17;;;4.80;99.90;;;;;;5052447;28;20459;-66
2021/04/20 04:47:01;;;;;;;31.67;23.30;;;4.90;99.90;;;;;;5053150;28;20839;-66
2021/04/20 04:49:29;;;;;;;33.20;24.23;;;4.90;99.90;;;;;;5052845;28;20228;-66
2021/04/20 04:51:56;;;;;;;27.40;22.43;;;4.90;99.90;;;;;;5052960;28;20562;-66
2021/04/20 04:54:22;;;;;;;26.47;21.90;;;5.00;99.90;;;;;;5051096;28;20870;-66
2021/04/20 04:56:49;;;;;;;26.90;23.47;;;4.90;99.90;;;;;;5047176;28;20432;-66
2021/04/20 04:59:20;;;;;;;29.60;23.47;;;4.90;99.90;;;;;;5052743;28;20524;-66
2021/04/20 05:01:46;;;;;;;33.40;24.57;;;4.80;99.90;;;;;;5052852;28;20494;-66
2021/04/20 05:04:13;;;;;;;29.73;23.47;;;4.80;99.90;;;;;;5052245;28;20546;-66
2021/04/20 05:06:46;;;;;;;29.30;24.00;;;4.90;99.90;;;;;;5049674;28;20527;-66
2021/04/20 05:09:13;;;;;;;38.13;25.77;;;4.90;99.90;;;;;;5052297;28;20423;-66
2021/04/20 05:11:44;;;;;;;29.03;25.10;;;4.90;99.90;;;;;;5047073;28;20480;-66
2021/04/20 05:14:12;;;;;;;30.67;23.10;;;5.00;99.90;;;;;;5050857;28;20492;-66
2021/04/20 05:16:40;;;;;;;31.97;24.93;;;5.00;99.90;;;;;;5050122;28;20451;-66
2021/04/20 05:19:08;;;;;;;29.03;24.17;;;5.10;99.90;;;;;;5041568;28;20855;-66
2021/04/20 05:21:35;;;;;;;29.47;23.80;;;5.10;99.90;;;;;;5034446;28;20460;-66
2021/04/20 05:24:00;;;;;;;28.67;22.13;;;5.20;99.90;;;;;;5045277;28;20440;-67
2021/04/20 05:26:30;;;;;;;30.73;26.27;;;5.20;99.90;;;;;;5052067;28;20435;-66
2021/04/20 05:29:00;;;;;;;27.33;24.23;;;5.30;99.90;;;;;;5045294;28;20204;-66
2021/04/20 05:31:27;;;;;;;32.20;23.30;;;5.30;99.90;;;;;;5051625;28;20452;-66
2021/04/20 05:34:00;;;;;;;33.27;26.30;;;5.20;99.90;;;;;;5052418;28;20464;-67
2021/04/20 05:36:26;;;;;;;29.13;22.20;;;5.20;99.90;;;;;;5050146;28;20525;-66
2021/04/20 05:39:00;;;;;;;30.23;24.33;;;5.30;99.90;;;;;;5052317;28;20607;-66
2021/04/20 05:41:30;;;;;;;30.37;24.80;;;5.40;99.90;;;;;;5052176;28;20440;-66
2021/04/20 05:43:57;;;;;;;32.70;25.60;;;5.60;99.90;;;;;;5045515;28;20427;-66
2021/04/20 05:46:24;;;;;;;34.37;24.77;;;5.70;99.90;;;;;;5051855;28;20432;-66
2021/04/20 05:48:51;;;;;;;30.47;26.13;;;5.90;99.90;;;;;;5034074;28;20434;-66
2021/04/20 05:51:18;;;;;;;30.03;23.90;;;6.10;99.90;;;;;;5051123;28;20475;-67
2021/04/20 05:53:45;;;;;;;34.90;23.33;;;6.20;99.90;;;;;;5046618;28;20435;-64
2021/04/20 05:56:11;;;;;;;29.87;24.97;;;6.50;99.90;;;;;;5052125;28;20471;-64
2021/04/20 05:58:37;;;;;;;43.17;33.60;;;6.60;99.90;;;;;;5051963;28;20432;-64
2021/04/20 06:01:04;;;;;;;33.83;28.20;;;6.70;99.90;;;;;;5051453;28;20542;-65
2021/04/20 06:03:33;;;;;;;29.73;25.03;;;6.90;99.90;;;;;;5052017;28;20197;-65
2021/04/20 06:06:01;;;;;;;27.77;24.70;;;7.00;99.90;;;;;;5042090;28;20464;-65
2021/04/20 06:08:27;;;;;;;30.93;25.53;;;7.20;99.90;;;;;;5032539;28;20838;-65
2021/04/20 06:10:54;;;;;;;32.30;26.10;;;7.30;99.90;;;;;;5017784;28;20451;-65
2021/04/20 06:13:20;;;;;;;32.57;25.50;;;7.50;99.90;;;;;;5051710;28;20904;-65
2021/04/20 06:15:45;;;;;;;30.10;26.80;;;7.70;99.90;;;;;;5050875;28;20432;-66
2021/04/20 06:18:11;;;;;;;28.63;25.63;;;7.80;99.90;;;;;;5040808;28;20181;-66
2021/04/20 06:20:37;;;;;;;27.53;23.43;;;8.10;99.90;;;;;;5034129;28;20228;-66
2021/04/20 06:23:05;;;;;;;26.87;24.07;;;8.30;99.90;;;;;;5050129;28;20598;-66
2021/04/20 06:25:32;;;;;;;27.13;23.43;;;8.40;99.90;;;;;;5031797;28;20451;-72
2021/04/20 06:27:57;;;;;;;26.80;23.50;;;8.40;99.90;;;;;;5049411;28;20936;-72
2021/04/20 06:30:23;;;;;;;28.97;25.10;;;8.80;99.90;;;;;;5052156;28;20558;-67
2021/04/20 06:32:50;;;;;;;31.07;26.27;;;9.00;99.90;;;;;;5049956;28;20185;-67
2021/04/20 06:35:18;;;;;;;27.63;24.70;;;9.20;99.90;;;;;;5050296;28;20282;-67
2021/04/20 06:37:46;;;;;;;25.57;21.33;;;9.30;99.90;;;;;;5039150;28;20504;-67
2021/04/20 06:40:36;;;;;;;29.57;25.67;;;9.60;99.90;;;;;;5037958;28;20435;-66
2021/04/20 06:43:10;;;;;;;27.93;24.70;;;9.80;99.90;;;;;;5028497;28;20444;-66
2021/04/20 06:45:49;;;;;;;31.23;24.40;;;9.90;99.90;;;;;;5050131;28;20463;-66
2021/04/20 06:48:24;;;;;;;30.50;25.83;;;10.10;99.90;;;;;;5050943;28;20435;-67
2021/04/20 06:50:54;;;;;;;32.87;28.03;;;10.40;99.90;;;;;;5047132;28;20467;-67
2021/04/20 06:53:25;;;;;;;33.73;27.93;;;10.60;99.90;;;;;;5050763;28;20435;-67
2021/04/20 06:56:07;;;;;;;31.80;28.40;;;10.80;99.90;;;;;;5050674;28;20428;-66
2021/04/20 06:58:48;;;;;;;31.57;28.20;;;10.90;99.90;;;;;;5050579;28;20503;-67
2021/04/20 07:01:36;;;;;;;31.03;26.73;;;11.10;99.90;;;;;;5049354;28;20451;-67
2021/04/20 07:04:15;;;;;;;33.60;29.40;;;11.30;99.90;;;;;;5050139;28;20436;-66
2021/04/20 07:07:12;;;;;;;27.80;24.77;;;11.30;99.90;;;;;;5049694;28;20424;-65
2021/04/20 07:09:45;;;;;;;32.77;28.17;;;11.30;99.90;;;;;;5050140;28;20427;-66
2021/04/20 07:12:15;;;;;;;28.13;25.20;;;11.30;99.90;;;;;;5050391;28;20851;-66
2021/04/20 07:14:47;;;;;;;34.70;30.30;;;11.40;99.90;;;;;;5041039;28;20451;-66
2021/04/20 07:17:19;;;;;;;33.17;29.57;;;11.50;99.90;;;;;;5049963;28;20511;-66
2021/04/20 07:20:05;;;;;;;38.13;30.27;;;11.70;99.90;;;;;;5049597;28;21345;-65
2021/04/20 07:22:37;;;;;;;35.73;30.53;;;11.50;99.90;;;;;;5044130;28;20859;-65
2021/04/20 07:25:09;;;;;;;38.43;30.70;;;11.80;99.90;;;;;;5041276;28;20451;-65
2021/04/20 07:27:47;;;;;;;32.93;28.13;;;12.00;99.90;;;;;;5030303;28;20554;-65
2021/04/20 07:30:24;;;;;;;30.40;27.17;;;12.30;99.90;;;;;;5029600;28;20424;-65
2021/04/20 07:33:02;;;;;;;31.57;28.27;;;12.70;99.90;;;;;;5032710;28;22070;-66
2021/04/20 07:35:40;;;;;;;29.53;26.33;;;12.80;99.90;;;;;;5039364;28;20450;-65
2021/04/20 07:38:18;;;;;;;32.13;27.43;;;13.00;99.90;;;;;;5034583;28;20486;-65
2021/04/20 07:40:58;;;;;;;28.47;25.43;;;13.10;99.90;;;;;;5016499;28;20462;-65
2021/04/20 07:43:37;;;;;;;28.20;23.50;;;12.90;99.90;;;;;;5048190;28;20436;-65
2021/04/20 07:46:15;;;;;;;23.30;19.97;;;13.20;99.90;;;;;;5034567;28;20463;-66
2021/04/20 07:48:49;;;;;;;23.50;21.00;;;13.50;99.90;;;;;;5040943;28;20443;-66
2021/04/20 07:51:38;;;;;;;24.03;21.43;;;13.70;99.90;;;;;;5043610;28;20815;-66
2021/04/20 07:54:38;;;;;;;30.57;27.50;;;13.90;99.90;;;;;;5033627;28;20432;-65
2021/04/20 07:57:25;;;;;;;30.20;24.20;;;13.60;99.90;;;;;;5036852;28;20427;-66
2021/04/20 07:59:50;;;;;;;29.23;25.47;;;13.40;99.90;;;;;;5036794;28;20441;-66
2021/04/20 08:02:34;;;;;;;30.60;27.10;;;13.60;99.90;;;;;;5036866;28;20444;-66
2021/04/20 08:05:21;;;;;;;29.93;26.67;;;13.60;99.90;;;;;;5038313;28;20189;-65
2021/04/20 08:07:56;;;;;;;33.80;30.30;;;13.70;99.90;;;;;;5036267;28;21009;-66
2021/04/20 08:10:32;;;;;;;27.83;23.37;;;14.10;99.90;;;;;;5038593;28;20427;-74
2021/04/20 08:13:24;;;;;;;25.63;22.90;;;13.90;99.90;;;;;;5042064;28;20505;-69
2021/04/20 08:16:00;;;;;;;25.43;22.47;;;14.40;99.90;;;;;;5036055;28;20442;-65
2021/04/20 08:18:36;;;;;;;23.43;20.90;;;14.60;99.90;;;;;;5034606;28;20461;-66
2021/04/20 08:21:04;;;;;;;24.30;21.67;;;15.00;99.90;;;;;;5037736;28;20508;-66
2021/04/20 08:23:32;;;;;;;19.93;18.03;;;14.90;99.90;;;;;;5040736;28;20530;-66
2021/04/20 08:26:10;;;;;;;17.70;16.00;;;14.90;99.90;;;;;;5036312;28;20972;-65
2021/04/20 08:28:44;;;;;;;21.93;19.70;;;15.20;99.90;;;;;;5035822;28;20963;-66
2021/04/20 08:31:45;;;;;;;21.37;19.23;;;15.60;99.90;;;;;;5040817;28;20439;-66
2021/04/20 08:34:35;;;;;;;21.77;19.57;;;15.80;99.90;;;;;;5042342;28;20432;-65
2021/04/20 08:37:00;;;;;;;22.20;20.00;;;15.60;99.90;;;;;;5040581;28;20495;-66
2021/04/20 08:39:58;;;;;;;21.03;19.03;;;16.00;99.90;;;;;;5043376;28;20427;-66
2021/04/20 08:42:36;;;;;;;20.27;18.37;;;16.20;99.90;;;;;;5039745;28;20271;-65
2021/04/20 08:45:19;;;;;;;19.60;17.53;;;16.40;99.90;;;;;;5039508;28;20554;-65
2021/04/20 08:48:15;;;;;;;19.10;17.37;;;16.30;99.90;;;;;;5043845;28;20432;-65
2021/04/20 08:50:56;;;;;;;20.57;18.17;;;16.00;99.90;;;;;;5042631;28;21071;-65
2021/04/20 08:53:54;;;;;;;20.30;18.40;;;16.20;99.90;;;;;;5043307;28;20432;-66
2021/04/20 08:56:25;;;;;;;21.50;19.50;;;16.40;99.90;;;;;;5038554;28;20500;-65
2021/04/20 08:59:28;;;;;;;19.23;17.43;;;16.60;99.90;;;;;;5036203;28;20420;-66
2021/04/20 09:02:12;;;;;;;19.93;18.03;;;16.40;99.90;;;;;;5046058;28;20538;-65
2021/04/20 09:04:58;;;;;;;18.60;16.77;;;17.10;99.90;;;;;;5039441;28;20451;-66
2021/04/20 09:07:45;;;;;;;20.37;18.47;;;17.60;99.30;;;;;;5037041;28;20428;-66
2021/04/20 09:10:14;;;;;;;18.30;16.70;;;17.70;98.60;;;;;;5037579;28;20439;-67
2021/04/20 09:12:40;;;;;;;20.10;18.20;;;18.10;98.00;;;;;;5037939;28;21054;-66
2021/04/20 09:15:09;;;;;;;22.50;20.50;;;18.40;97.90;;;;;;5049531;28;20440;-66
2021/04/20 09:17:44;;;;;;;18.70;16.83;;;17.80;97.70;;;;;;5040014;28;20980;-66
2021/04/20 09:20:16;;;;;;;17.80;16.20;;;17.20;97.30;;;;;;5042024;28;20843;-66
2021/04/20 09:22:49;;;;;;;19.00;17.30;;;17.00;97.50;;;;;;5041466;28;21868;-66
2021/04/20 09:25:25;;;;;;;17.47;15.87;;;16.60;98.20;;;;;;5036206;28;20464;-65
2021/04/20 09:28:05;;;;;;;15.47;13.97;;;17.20;97.90;;;;;;5040698;28;20432;-66
2021/04/20 09:30:38;;;;;;;15.77;13.90;;;17.20;95.50;;;;;;5038336;28;20593;-65
2021/04/20 09:33:11;;;;;;;17.30;15.60;;;17.00;96.30;;;;;;5047147;28;20512;-65
2021/04/20 09:35:38;;;;;;;17.83;16.30;;;16.20;97.40;;;;;;5033379;28;20454;-66
2021/04/20 09:38:08;;;;;;;16.00;14.60;;;15.90;98.80;;;;;;5039151;28;20451;-67
2021/04/20 09:40:34;;;;;;;21.33;19.23;;;16.70;98.80;;;;;;5044926;28;20463;-66
2021/04/20 09:43:31;;;;;;;21.57;19.57;;;18.50;97.80;;;;;;5045845;28;20484;-65
2021/04/20 09:46:03;;;;;;;19.80;17.90;;;20.30;94.50;;;;;;5017920;28;20463;-67
2021/04/20 09:49:04;;;;;;;19.67;17.87;;;21.70;89.80;;;;;;5037683;28;20486;-65
2021/04/20 09:51:38;;;;;;;24.80;22.43;;;21.80;86.00;;;;;;5016668;28;20899;-65
2021/04/20 09:54:09;;;;;;;19.00;17.40;;;22.90;80.00;;;;;;5037165;28;20477;-65
2021/04/20 09:56:39;;;;;;;18.97;17.00;;;23.20;75.00;;;;;;5047070;28;20440;-67
2021/04/20 09:59:26;;;;;;;25.73;20.73;;;21.90;76.00;;;;;;5039104;28;20527;-65
2021/04/20 10:02:04;;;;;;;18.70;17.10;;;21.20;79.80;;;;;;5040886;28;20935;-65
2021/04/20 10:04:41;;;;;;;18.50;16.70;;;20.70;79.80;;;;;;5040207;28;20462;-65
2021/04/20 10:07:17;;;;;;;19.10;17.40;;;19.90;81.40;;;;;;5038578;28;20431;-64
2021/04/20 10:10:05;;;;;;;20.00;18.20;;;18.90;85.30;;;;;;5030946;28;20494;-65
2021/04/20 10:12:36;;;;;;;20.40;18.60;;;18.40;89.20;;;;;;5041932;28;20976;-65
2021/04/20 10:15:22;;;;;;;18.50;16.80;;;18.00;91.10;;;;;;5042458;28;20442;-65
2021/04/20 10:17:54;;;;;;;18.27;16.57;;;17.90;91.00;;;;;;5040513;28;20518;-65
2021/04/20 10:20:48;;;;;;;21.47;18.10;;;17.80;90.60;;;;;;5034731;28;20933;-65
2021/04/20 10:23:59;;;;;;;18.67;17.07;;;17.50;91.40;;;;;;5043036;28;20532;-64
2021/04/20 10:26:31;;;;;;;18.97;17.27;;;17.20;92.10;;;;;;5022434;28;20431;-65
2021/04/20 10:29:06;;;;;;;19.53;17.60;;;16.90;92.50;;;;;;5048582;28;20434;-65
2021/04/20 10:31:36;;;;;;;18.53;16.90;;;16.90;92.80;;;;;;5038547;28;20518;-64
2021/04/20 10:34:03;;;;;;;18.77;17.03;;;16.60;93.50;;;;;;5042427;28;20428;-64
2021/04/20 10:36:29;;;;;;;20.33;18.43;;;16.90;94.10;;;;;;5035379;28;20439;-64
2021/04/20 10:38:59;;;;;;;19.53;17.73;;;17.20;93.30;;;;;;5047350;28;20501;-65
2021/04/20 10:41:33;;;;;;;19.00;17.17;;;16.90;93.20;;;;;;5035998;28;20525;-64
2021/04/20 10:44:01;;;;;;;19.67;17.83;;;17.10;93.90;;;;;;5045593;28;20431;-65
2021/04/20 10:46:29;;;;;;;18.73;16.93;;;17.60;94.10;;;;;;5037150;28;20443;-65
2021/04/20 10:48:58;;;;;;;21.00;19.10;;;18.60;91.50;;;;;;5041899;28;20435;-65
2021/04/20 10:51:38;;;;;;;18.87;16.97;;;19.50;89.60;;;;;;5039600;28;21214;-65
2021/04/20 10:54:08;;;;;;;16.77;15.03;;;20.10;86.90;;;;;;5038321;28;20445;-65
2021/04/20 10:56:35;;;;;;;18.17;16.47;;;21.90;80.30;;;;;;5043821;28;20968;-64
2021/04/20 10:59:06;;;;;;;18.47;16.87;;;23.00;73.40;;;;;;5045217;28;20427;-64
2021/04/20 11:01:33;;;;;;;18.13;16.50;;;21.80;73.50;;;;;;5035743;28;20462;-64
2021/04/20 11:04:01;;;;;;;17.50;15.90;;;21.80;74.20;;;;;;5037582;28;20428;-65
2021/04/20 11:07:04;;;;;;;17.33;15.73;;;22.30;72.30;;;;;;5035480;28;20448;-64
2021/04/20 11:09:34;;;;;;;15.90;14.40;;;23.20;69.30;;;;;;5038471;28;21039;-64
2021/04/20 11:12:11;;;;;;;21.00;19.30;;;25.20;62.60;;;;;;5045593;28;20470;-65
2021/04/20 11:14:39;;;;;;;16.63;15.10;;;24.60;59.90;;;;;;5036102;28;20900;-63
2021/04/20 11:17:08;;;;;;;16.57;15.20;;;24.20;60.60;;;;;;5042536;28;20523;-66
2021/04/20 11:19:36;;;;;;;17.10;15.60;;;23.90;59.80;;;;;;5042473;28;20428;-66
2021/04/20 11:22:03;;;;;;;14.30;13.00;;;25.50;58.00;;;;;;5035758;28;20503;-65
2021/04/20 11:24:33;;;;;;;16.20;14.90;;;26.20;55.70;;;;;;5034093;28;20495;-65
2021/04/20 11:27:07;;;;;;;13.27;11.97;;;27.40;53.20;;;;;;5037180;28;20537;-66
2021/04/20 11:29:44;;;;;;;10.53;9.73;;;27.50;49.50;;;;;;5034423;28;21048;-65
2021/04/20 11:32:16;;;;;;;11.20;10.40;;;24.70;47.70;;;;;;5037117;28;20536;-64
2021/04/20 11:34:46;;;;;;;10.90;9.90;;;22.50;50.80;;;;;;5041115;28;20470;-64
2021/04/20 11:37:12;;;;;;;10.10;9.30;;;21.30;54.10;;;;;;5035783;28;20490;-64
2021/04/20 11:39:43;;;;;;;11.90;10.90;;;20.40;55.60;;;;;;5041959;28;20440;-64
2021/04/20 11:42:24;;;;;;;12.67;11.57;;;21.80;55.10;;;;;;5033563;28;20475;-66
2021/04/20 11:44:54;;;;;;;12.10;11.03;;;24.10;54.00;;;;;;5045523;28;20432;-64
2021/04/20 11:47:21;;;;;;;10.80;9.70;;;27.10;51.10;;;;;;5033770;28;20524;-65
2021/04/20 11:49:49;;;;;;;10.53;9.63;;;28.60;45.70;;;;;;5036699;28;20439;-65
2021/04/20 11:52:17;;;;;;;11.27;10.37;;;28.50;43.00;;;;;;5040893;28;20804;-65
2021/04/20 11:54:44;;;;;;;13.50;12.40;;;26.40;44.80;;;;;;5041593;28;20460;-66
2021/04/20 11:57:12;;;;;;;12.67;11.53;;;24.30;46.90;;;;;;5038746;28;20432;-65
2021/04/20 11:59:39;;;;;;;11.87;10.87;;;23.70;48.90;;;;;;5046616;28;20854;-64
2021/04/20 12:02:06;;;;;;;13.50;12.40;;;23.00;50.50;;;;;;5048934;28;21039;-65
2021/04/20 12:04:46;;;;;;;12.50;11.40;;;21.60;52.40;;;;;;5049844;28;20432;-65
2021/04/20 12:07:13;;;;;;;13.73;12.50;;;21.10;54.40;;;;;;5030931;28;20439;-69
2021/04/20 12:09:41;;;;;;;12.90;11.80;;;23.10;52.90;;;;;;5049216;28;20435;-66
2021/04/20 12:12:07;;;;;;;12.27;11.27;;;25.20;49.80;;;;;;5038784;28;20456;-67
2021/04/20 12:14:41;;;;;;;9.73;8.93;;;26.60;47.50;;;;;;5040872;28;20462;-66
2021/04/20 12:17:07;;;;;;;8.90;8.00;;;28.10;44.40;;;;;;5049355;28;20507;-66
2021/04/20 12:19:36;;;;;;;8.93;8.33;;;28.30;43.00;;;;;;5049038;28;20519;-66
2021/04/20 12:22:04;;;;;;;8.00;7.30;;;26.50;42.50;;;;;;5049424;28;20205;-66
2021/04/20 12:24:33;;;;;;;8.80;8.10;;;26.90;43.20;;;;;;5049853;28;20432;-66
2021/04/20 12:27:04;;;;;;;9.10;8.33;;;28.60;41.20;;;;;;5049666;28;20945;-66
2021/04/20 12:29:40;;;;;;;8.50;7.90;;;28.30;40.40;;;;;;5043510;28;20432;-66
2021/04/20 12:32:13;;;;;;;10.17;9.47;;;27.60;41.90;;;;;;5042209;28;20477;-67
2021/04/20 12:34:39;;;;;;;8.87;8.17;;;27.40;41.70;;;;;;5041252;28;20511;-67
2021/04/20 12:37:07;;;;;;;11.23;10.30;;;28.00;41.40;;;;;;5049161;28;20432;-67
2021/04/20 12:39:45;;;;;;;9.47;8.77;;;27.80;40.70;;;;;;5041817;28;20174;-70
2021/04/20 12:42:13;;;;;;;10.30;9.50;;;26.20;42.40;;;;;;5051013;28;20478;-67
2021/04/20 12:44:42;;;;;;;8.90;8.20;;;27.00;41.70;;;;;;5052524;28;20442;-67
2021/04/20 12:47:11;;;;;;;9.27;8.50;;;26.80;41.00;;;;;;5050265;28;20450;-67
2021/04/20 12:49:43;;;;;;;9.57;8.77;;;27.10;40.50;;;;;;5052627;28;20871;-67
2021/04/20 12:52:13;;;;;;;8.90;8.10;;;27.40;40.00;;;;;;5052707;28;20850;-67
2021/04/20 12:54:42;;;;;;;8.50;7.87;;;27.40;40.20;;;;;;5040720;28;20468;-67